createdAt,value
2017-09-14T00:00:05.981Z,99810.80
2017-09-14T00:02:08.445Z,99814.55
2017-09-14T00:04:11.023Z,99802.80
2017-09-14T00:06:13.514Z,99808.21
2017-09-14T00:08:15.969Z,99806.96
2017-09-14T00:10:18.500Z,99801.31
2017-09-14T00:12:20.946Z,99802.67
2017-09-14T00:14:23.412Z,99800.72
2017-09-14T00:16:25.875Z,99800.52
2017-09-14T00:18:28.352Z,99801.27
2017-09-14T00:20:30.890Z,99800.66
2017-09-14T00:22:33.397Z,99795.25
2017-09-14T00:24:35.892Z,99795.42
2017-09-14T00:26:38.405Z,99792.62
2017-09-14T00:28:40.829Z,99788.25
2017-09-14T00:30:43.257Z,99800.12
2017-09-14T00:32:45.721Z,99800.23
2017-09-14T00:34:48.165Z,99779.97
2017-09-14T00:36:50.647Z,99779.23
2017-09-14T00:38:53.100Z,99763.65
2017-09-14T00:40:55.634Z,99763.02
2017-09-14T00:42:58.073Z,99768.02
2017-09-14T00:45:00.636Z,99766.14
2017-09-14T00:47:03.101Z,99767.39
2017-09-14T00:49:05.524Z,99761.26
2017-09-14T00:51:08.106Z,99762.20
2017-09-14T00:53:10.586Z,99764.20
2017-09-14T00:55:13.024Z,99763.27
2017-09-14T00:57:15.615Z,99759.98
2017-09-14T00:59:18.128Z,99756.06
2017-09-14T01:01:20.647Z,99746.50
2017-09-14T01:03:23.127Z,99752.98
2017-09-14T01:05:25.564Z,99747.85
2017-09-14T01:07:28.053Z,99740.89
2017-09-14T01:09:30.506Z,99734.34
2017-09-14T01:11:32.985Z,99734.76
2017-09-14T01:13:35.457Z,99738.39
2017-09-14T01:15:45.822Z,99745.39
2017-09-14T01:17:48.280Z,99737.70
2017-09-14T01:19:50.816Z,99739.57
2017-09-14T01:21:53.266Z,99738.11
2017-09-14T01:23:55.718Z,99740.09
2017-09-14T01:25:58.147Z,99741.65
2017-09-14T01:28:00.614Z,99747.78
2017-09-14T01:30:03.116Z,99751.42
2017-09-14T01:32:05.637Z,99762.33
2017-09-14T01:34:08.096Z,99762.44
2017-09-14T01:36:10.545Z,99762.02
2017-09-14T01:38:13.151Z,99759.42
2017-09-14T01:40:15.620Z,99760.36
2017-09-14T01:42:18.070Z,99759.94
2017-09-14T01:44:20.644Z,99762.36
2017-09-14T01:46:23.166Z,99761.29
2017-09-14T01:48:25.613Z,99770.05
2017-09-14T01:50:28.175Z,99776.98
2017-09-14T01:52:30.705Z,99773.03
2017-09-14T01:54:33.144Z,99773.69
2017-09-14T01:56:35.644Z,99773.45
2017-09-14T01:58:38.209Z,99781.55
2017-09-14T02:00:40.641Z,99779.61
2017-09-14T02:02:43.185Z,99773.17
2017-09-14T02:04:45.774Z,99783.01
2017-09-14T02:06:48.261Z,99776.16
2017-09-14T02:08:50.728Z,99774.10
2017-09-14T02:10:53.350Z,99772.02
2017-09-14T02:12:55.868Z,99768.08
2017-09-14T02:14:58.372Z,99762.39
2017-09-14T02:17:01.056Z,99758.20
2017-09-14T02:19:03.485Z,99748.88
2017-09-14T02:21:05.916Z,99754.67
2017-09-14T02:23:08.380Z,99753.42
2017-09-14T02:25:10.818Z,99741.27
2017-09-14T02:27:13.261Z,99743.14
2017-09-14T02:29:15.755Z,99737.52
2017-09-14T02:31:18.336Z,99738.17
2017-09-14T02:33:20.789Z,99734.55
2017-09-14T02:35:23.261Z,99734.41
2017-09-14T02:37:25.762Z,99733.19
2017-09-14T02:39:28.283Z,99732.36
2017-09-14T02:41:30.758Z,99732.77
2017-09-14T02:43:33.264Z,99727.58
2017-09-14T02:45:35.701Z,99722.07
2017-09-14T02:47:38.231Z,99721.14
2017-09-14T02:49:40.685Z,99719.37
2017-09-14T02:51:43.140Z,99721.03
2017-09-14T02:53:45.726Z,99716.15
2017-09-14T02:55:48.223Z,99717.09
2017-09-14T02:57:50.655Z,99719.47
2017-09-14T02:59:53.173Z,99721.97
2017-09-14T03:01:55.739Z,99714.91
2017-09-14T03:03:58.260Z,99719.89
2017-09-14T03:06:00.718Z,99724.88
2017-09-14T03:08:03.254Z,99724.36
2017-09-14T03:10:05.722Z,99724.05
2017-09-14T03:12:08.188Z,99722.59
2017-09-14T03:14:10.741Z,99717.19
2017-09-14T03:16:13.674Z,99717.91
2017-09-14T03:18:16.163Z,99717.50
2017-09-14T03:20:18.709Z,99722.59
2017-09-14T03:22:21.175Z,99723.73
2017-09-14T03:24:23.651Z,99723.84
2017-09-14T03:26:26.178Z,99725.08
2017-09-14T03:28:28.646Z,99717.61
2017-09-14T03:30:31.105Z,99721.34
2017-09-14T03:32:33.631Z,99724.88
2017-09-14T03:34:36.075Z,99722.83
2017-09-14T03:36:38.573Z,99720.65
2017-09-14T03:38:41.110Z,99724.36
2017-09-14T03:40:43.673Z,99725.12
2017-09-14T03:42:46.125Z,99725.95
2017-09-14T03:44:48.584Z,99720.23
2017-09-14T03:46:51.017Z,99714.00
2017-09-14T03:48:53.494Z,99715.25
2017-09-14T03:50:55.963Z,99711.19
2017-09-14T03:52:58.515Z,99703.78
2017-09-14T03:55:01.116Z,99704.09
2017-09-14T03:57:03.540Z,99696.34
2017-09-14T03:59:06.033Z,99692.04
2017-09-14T04:01:08.517Z,99693.29
2017-09-14T04:03:11.049Z,99686.46
2017-09-14T04:05:13.489Z,99690.59
2017-09-14T04:07:15.965Z,99696.44
2017-09-14T04:09:18.430Z,99698.69
2017-09-14T04:11:20.873Z,99698.10
2017-09-14T04:13:23.375Z,99699.03
2017-09-14T04:15:26.020Z,99695.58
2017-09-14T04:17:28.463Z,99696.23
2017-09-14T04:19:31.004Z,99697.34
2017-09-14T04:21:33.471Z,99688.51
2017-09-14T04:23:36.104Z,99692.45
2017-09-14T04:25:38.677Z,99691.62
2017-09-14T04:27:41.248Z,99693.81
2017-09-14T04:29:43.913Z,99691.87
2017-09-14T04:31:46.465Z,99695.19
2017-09-14T04:33:48.917Z,99690.63
2017-09-14T04:35:51.392Z,99690.94
2017-09-14T04:37:53.968Z,99682.00
2017-09-14T04:39:56.447Z,99684.28
2017-09-14T04:41:59.268Z,99684.08
2017-09-14T04:44:01.765Z,99688.75
2017-09-14T04:46:04.284Z,99683.03
2017-09-14T04:48:06.730Z,99682.93
2017-09-14T04:50:09.217Z,99682.93
2017-09-14T04:52:11.708Z,99677.11
2017-09-14T04:54:14.146Z,99669.11
2017-09-14T04:56:16.700Z,99662.98
2017-09-14T04:58:19.138Z,99661.62
2017-09-14T05:00:21.707Z,99654.56
2017-09-14T05:02:24.221Z,99645.53
2017-09-14T05:04:26.741Z,99642.31
2017-09-14T05:06:29.222Z,99628.07
2017-09-14T05:08:31.879Z,99629.11
2017-09-14T05:10:34.509Z,99624.78
2017-09-14T05:12:37.040Z,99625.38
2017-09-14T05:14:39.773Z,99624.75
2017-09-14T05:16:42.230Z,99620.80
2017-09-14T05:18:44.781Z,99633.78
2017-09-14T05:20:47.344Z,99639.50
2017-09-14T05:22:49.784Z,99651.24
2017-09-14T05:24:52.339Z,99657.27
2017-09-14T05:26:54.802Z,99656.92
2017-09-14T05:28:57.372Z,99655.57
2017-09-14T05:30:59.859Z,99657.86
2017-09-14T05:33:02.442Z,99664.85
2017-09-14T05:35:05.328Z,99674.63
2017-09-14T05:37:07.846Z,99670.33
2017-09-14T05:39:10.320Z,99677.84
2017-09-14T05:41:12.793Z,99671.50
2017-09-14T05:43:15.240Z,99663.92
2017-09-14T05:45:17.688Z,99663.39
2017-09-14T05:47:20.116Z,99671.67
2017-09-14T05:49:22.984Z,99676.66
2017-09-14T05:51:25.728Z,99675.66
2017-09-14T05:53:28.253Z,99672.13
2017-09-14T05:55:30.755Z,99667.97
2017-09-14T05:57:33.349Z,99661.73
2017-09-14T05:59:36.020Z,99672.61
2017-09-14T06:01:38.665Z,99667.10
2017-09-14T06:03:41.786Z,99656.30
2017-09-14T06:05:44.333Z,99647.88
2017-09-14T06:07:46.781Z,99657.44
2017-09-14T06:09:49.404Z,99688.41
2017-09-14T06:11:52.154Z,99694.88
2017-09-14T06:13:56.467Z,99695.67
2017-09-14T06:15:58.924Z,99693.70
2017-09-14T06:18:01.496Z,99672.61
2017-09-14T06:20:03.989Z,99650.06
2017-09-14T06:22:06.461Z,99639.77
2017-09-14T06:24:09.730Z,99650.58
2017-09-14T06:26:12.261Z,99657.44
2017-09-14T06:28:15.373Z,99675.31
2017-09-14T06:30:17.856Z,99673.82
2017-09-14T06:32:20.308Z,99666.44
2017-09-14T06:34:22.761Z,99659.45
2017-09-14T06:36:25.252Z,99649.58
2017-09-14T06:38:27.688Z,99639.08
2017-09-14T06:40:30.309Z,99640.43
2017-09-14T06:42:32.809Z,99650.75
2017-09-14T06:44:35.357Z,99654.77
2017-09-14T06:46:37.860Z,99643.58
2017-09-14T06:48:40.361Z,99638.34
2017-09-14T06:50:42.865Z,99627.43
2017-09-14T06:52:45.333Z,99633.66
2017-09-14T06:54:47.814Z,99651.95
2017-09-14T06:56:50.353Z,99652.23
2017-09-14T06:58:52.882Z,99656.42
2017-09-14T07:00:55.855Z,99653.30
2017-09-14T07:02:58.452Z,99663.98
2017-09-14T07:05:00.904Z,99669.59
2017-09-14T07:07:03.397Z,99671.05
2017-09-14T07:09:05.851Z,99679.98
2017-09-14T07:11:08.314Z,99692.45
2017-09-14T07:13:10.913Z,99695.27
2017-09-14T07:15:13.400Z,99702.84
2017-09-14T07:17:15.889Z,99709.19
2017-09-14T07:19:18.694Z,99707.42
2017-09-14T07:21:22.248Z,99707.73
2017-09-14T07:23:24.851Z,99713.94
2017-09-14T07:25:27.300Z,99723.95
2017-09-14T07:27:29.948Z,99714.77
2017-09-14T07:29:32.459Z,99720.28
2017-09-14T07:31:34.896Z,99726.48
2017-09-14T07:33:37.321Z,99721.59
2017-09-14T07:35:39.828Z,99721.14
2017-09-14T07:37:42.293Z,99720.91
2017-09-14T07:39:44.846Z,99710.71
2017-09-14T07:41:47.383Z,99711.51
2017-09-14T07:43:50.884Z,99721.17
2017-09-14T07:45:53.487Z,99715.15
2017-09-14T07:47:56.090Z,99719.62
2017-09-14T07:49:58.647Z,99730.02
2017-09-14T07:52:01.229Z,99731.50
2017-09-14T07:54:03.741Z,99730.60
2017-09-14T07:56:06.621Z,99728.48
2017-09-14T07:58:09.085Z,99736.42
2017-09-14T08:00:11.633Z,99729.39
2017-09-14T08:02:14.244Z,99746.82
2017-09-14T08:04:16.676Z,99740.52
2017-09-14T08:06:19.175Z,99753.55
2017-09-14T08:08:22.606Z,99736.70
2017-09-14T08:10:25.147Z,99747.72
2017-09-14T08:12:27.728Z,99750.84
2017-09-14T08:14:30.164Z,99751.02
2017-09-14T08:16:32.650Z,99748.52
2017-09-14T08:18:35.224Z,99753.92
2017-09-14T08:20:37.796Z,99759.58
2017-09-14T08:22:40.305Z,99766.85
2017-09-14T08:24:43.665Z,99766.09
2017-09-14T08:26:46.177Z,99772.95
2017-09-14T08:28:48.625Z,99767.61
2017-09-14T08:30:51.247Z,99779.64
2017-09-14T08:32:54.701Z,99779.70
2017-09-14T08:34:57.192Z,99782.55
2017-09-14T08:36:59.769Z,99784.53
2017-09-14T08:39:02.392Z,99799.02
2017-09-14T08:41:04.889Z,99793.86
2017-09-14T08:43:07.384Z,99790.28
2017-09-14T08:45:09.824Z,99792.85
2017-09-14T08:47:12.471Z,99793.16
2017-09-14T08:49:14.977Z,99793.23
2017-09-14T08:51:17.594Z,99796.07
2017-09-14T08:53:20.051Z,99804.92
2017-09-14T08:55:22.560Z,99807.41
2017-09-14T08:57:25.076Z,99812.51
2017-09-14T08:59:27.661Z,99806.06
2017-09-14T09:01:30.233Z,99810.56
2017-09-14T09:03:32.728Z,99804.09
2017-09-14T09:05:35.256Z,99815.04
2017-09-14T09:07:38.246Z,99818.13
2017-09-14T09:09:40.702Z,99813.30
2017-09-14T09:11:43.151Z,99813.23
2017-09-14T09:13:45.678Z,99806.95
2017-09-14T09:15:48.251Z,99811.02
2017-09-14T09:17:50.849Z,99811.53
2017-09-14T09:19:53.300Z,99813.06
2017-09-14T09:21:55.749Z,99804.73
2017-09-14T09:23:58.215Z,99805.11
2017-09-14T09:26:00.705Z,99796.27
2017-09-14T09:28:03.144Z,99792.04
2017-09-14T09:30:05.649Z,99805.16
2017-09-14T09:32:08.127Z,99804.77
2017-09-14T09:34:10.614Z,99807.06
2017-09-14T09:36:13.078Z,99817.57
2017-09-14T09:38:15.533Z,99814.59
2017-09-14T09:40:18.028Z,99817.16
2017-09-14T09:42:20.496Z,99824.05
2017-09-14T09:44:23.102Z,99834.45
2017-09-14T09:46:25.594Z,99831.75
2017-09-14T09:48:28.073Z,99839.45
2017-09-14T09:50:30.533Z,99845.69
2017-09-14T09:52:33.050Z,99849.33
2017-09-14T09:54:35.533Z,99854.73
2017-09-14T09:56:38.009Z,99851.69
2017-09-14T09:58:40.520Z,99856.65
2017-09-14T10:00:42.991Z,99848.33
2017-09-14T10:02:46.081Z,99857.59
2017-09-14T10:04:48.690Z,99863.63
2017-09-14T10:06:51.240Z,99865.77
2017-09-14T10:08:53.739Z,99873.13
2017-09-14T10:10:56.207Z,99873.54
2017-09-14T10:12:58.733Z,99867.33
2017-09-14T10:15:01.240Z,99883.25
2017-09-14T10:17:04.650Z,99876.87
2017-09-14T10:19:07.153Z,99878.73
2017-09-14T10:21:10.728Z,99879.64
2017-09-14T10:23:13.280Z,99880.95
2017-09-14T10:25:15.865Z,99881.65
2017-09-14T10:27:18.384Z,99888.14
2017-09-14T10:29:20.837Z,99895.18
2017-09-14T10:31:23.277Z,99904.23
2017-09-14T10:33:25.840Z,99897.26
2017-09-14T10:35:28.482Z,99905.03
2017-09-14T10:37:31.085Z,99901.17
2017-09-14T10:39:33.618Z,99909.20
2017-09-14T10:41:36.060Z,99905.23
2017-09-14T10:43:38.521Z,99909.67
2017-09-14T10:45:41.139Z,99922.24
2017-09-14T10:47:43.634Z,99914.84
2017-09-14T10:49:46.153Z,99915.58
2017-09-14T10:51:48.735Z,99917.34
2017-09-14T10:53:51.237Z,99928.84
2017-09-14T10:55:53.765Z,99918.83
2017-09-14T10:57:56.345Z,99927.43
2017-09-14T10:59:58.791Z,99932.30
2017-09-14T11:02:01.275Z,99933.78
2017-09-14T11:04:04.012Z,99926.39
2017-09-14T11:06:06.584Z,99928.00
2017-09-14T11:08:09.030Z,99927.64
2017-09-14T11:10:11.521Z,99932.58
2017-09-14T11:12:14.053Z,99933.41
2017-09-14T11:14:16.671Z,99937.83
2017-09-14T11:16:19.173Z,99922.52
2017-09-14T11:18:21.645Z,99924.77
2017-09-14T11:20:24.326Z,99930.67
2017-09-14T11:22:26.828Z,99936.49
2017-09-14T11:24:29.313Z,99942.95
2017-09-14T11:26:31.842Z,99959.70
2017-09-14T11:28:34.585Z,99960.95
2017-09-14T11:30:37.048Z,99971.02
2017-09-14T11:32:39.581Z,99976.50
2017-09-14T11:34:42.102Z,99979.00
2017-09-14T11:36:44.667Z,99961.72
2017-09-14T11:38:47.234Z,99963.59
2017-09-14T11:40:49.710Z,99967.23
2017-09-14T11:42:52.157Z,99957.66
2017-09-14T11:44:54.612Z,99946.80
2017-09-14T11:46:57.179Z,99947.29
2017-09-14T11:48:59.664Z,99945.17
2017-09-14T11:51:02.162Z,99957.88
2017-09-14T11:53:04.640Z,99954.05
2017-09-14T11:55:07.110Z,99962.10
2017-09-14T11:57:09.576Z,99981.08
2017-09-14T11:59:12.173Z,100005.77
2017-09-14T12:01:14.637Z,99993.84
2017-09-14T12:03:17.125Z,99988.45
2017-09-14T12:05:19.981Z,99991.44
2017-09-14T12:07:23.370Z,100003.88
2017-09-14T12:09:25.840Z,100003.53
2017-09-14T12:11:28.399Z,100010.02
2017-09-14T12:13:30.856Z,100026.06
2017-09-14T12:15:33.371Z,100026.09
2017-09-14T12:17:35.853Z,100027.17
2017-09-14T12:19:38.375Z,100026.13
2017-09-14T12:21:40.955Z,100022.72
2017-09-14T12:23:43.523Z,100016.55
2017-09-14T12:25:46.005Z,100010.09
2017-09-14T12:27:48.653Z,100014.36
2017-09-14T12:29:51.270Z,100010.13
2017-09-14T12:31:53.724Z,100013.27
2017-09-14T12:33:56.183Z,100006.23
2017-09-14T12:35:58.692Z,99998.01
2017-09-14T12:38:01.282Z,100003.10
2017-09-14T12:40:03.777Z,100007.61
2017-09-14T12:42:06.352Z,99998.97
2017-09-14T12:44:08.821Z,100002.48
2017-09-14T12:46:11.295Z,100007.89
2017-09-14T12:48:13.869Z,100010.47
2017-09-14T12:50:16.372Z,100006.33
2017-09-14T12:52:18.842Z,100005.89
2017-09-14T12:54:21.340Z,100007.89
2017-09-14T12:56:23.840Z,100003.91
2017-09-14T12:58:26.287Z,100008.77
2017-09-14T13:00:28.768Z,100007.50
2017-09-14T13:02:31.229Z,100007.36
2017-09-14T13:04:33.748Z,100016.70
2017-09-14T13:06:36.731Z,100005.51
2017-09-14T13:08:39.218Z,100018.08
2017-09-14T13:10:41.773Z,100018.98
2017-09-14T13:12:44.307Z,100018.66
2017-09-14T13:14:46.777Z,100023.91
2017-09-14T13:16:49.251Z,100002.17
2017-09-14T13:18:51.742Z,100016.64
2017-09-14T13:20:54.252Z,100011.96
2017-09-14T13:22:56.722Z,100028.44
2017-09-14T13:24:59.268Z,100023.05
2017-09-14T13:27:01.744Z,100038.35
2017-09-14T13:29:04.313Z,100047.48
2017-09-14T13:31:06.819Z,100034.86
2017-09-14T13:33:09.400Z,100034.52
2017-09-14T13:35:11.862Z,100049.53
2017-09-14T13:37:14.373Z,100051.75
2017-09-14T13:39:16.851Z,100043.39
2017-09-14T13:41:19.294Z,100045.06
2017-09-14T13:43:21.909Z,100054.32
2017-09-14T13:45:24.482Z,100060.59
2017-09-14T13:47:26.929Z,100060.64
2017-09-14T13:49:29.445Z,100064.78
2017-09-14T13:51:31.995Z,100066.45
2017-09-14T13:53:34.438Z,100079.06
2017-09-14T13:55:36.913Z,100069.94
2017-09-14T13:57:39.360Z,100069.28
2017-09-14T13:59:41.812Z,100068.38
2017-09-14T14:01:44.451Z,100070.33
2017-09-14T14:03:47.844Z,100074.00
2017-09-14T14:05:50.301Z,100087.84
2017-09-14T14:07:52.885Z,100087.95
2017-09-14T14:09:55.342Z,100090.73
2017-09-14T14:11:57.822Z,100078.66
2017-09-14T14:14:00.322Z,100080.94
2017-09-14T14:16:02.773Z,100092.00
2017-09-14T14:18:05.237Z,100093.14
2017-09-14T14:20:07.751Z,100090.34
2017-09-14T14:22:10.278Z,100098.88
2017-09-14T14:24:12.725Z,100103.25
2017-09-14T14:26:15.272Z,100104.80
2017-09-14T14:28:17.793Z,100116.56
2017-09-14T14:30:20.361Z,100117.92
2017-09-14T14:32:22.876Z,100112.61
2017-09-14T14:34:25.380Z,100122.00
2017-09-14T14:36:27.978Z,100130.85
2017-09-14T14:38:30.461Z,100135.33
2017-09-14T14:40:32.984Z,100124.37
2017-09-14T14:42:35.437Z,100125.47
2017-09-14T14:44:37.930Z,100137.72
2017-09-14T14:46:40.429Z,100135.63
2017-09-14T14:48:42.872Z,100153.02
2017-09-14T14:50:45.438Z,100153.30
2017-09-14T14:52:47.910Z,100158.97
2017-09-14T14:54:50.376Z,100165.05
2017-09-14T14:56:52.994Z,100169.48
2017-09-14T14:58:55.456Z,100168.44
2017-09-14T15:00:57.925Z,100167.62
2017-09-14T15:03:00.413Z,100173.30
2017-09-14T15:05:02.878Z,100170.11
2017-09-14T15:07:05.340Z,100155.48
2017-09-14T15:09:08.012Z,100161.73
2017-09-14T15:11:10.590Z,100159.41
2017-09-14T15:13:13.049Z,100158.79
2017-09-14T15:15:15.549Z,100153.05
2017-09-14T15:17:18.107Z,100155.40
2017-09-14T15:19:20.601Z,100147.17
2017-09-14T15:21:23.166Z,100132.31
2017-09-14T15:23:25.640Z,100139.56
2017-09-14T15:25:28.096Z,100149.23
2017-09-14T15:27:30.588Z,100146.00
2017-09-14T15:29:33.045Z,100148.69
2017-09-14T15:31:35.486Z,100148.36
2017-09-14T15:33:37.963Z,100149.47
2017-09-14T15:35:40.440Z,100153.51
2017-09-14T15:37:48.433Z,100152.80
2017-09-14T15:39:56.546Z,100152.97
2017-09-14T15:41:59.007Z,100154.63
2017-09-14T15:44:07.207Z,100156.41
2017-09-14T15:46:09.731Z,100153.16
2017-09-14T15:48:17.923Z,100168.22
2017-09-14T15:50:26.112Z,100152.23
2017-09-14T15:52:28.596Z,100159.19
2017-09-14T15:54:31.056Z,100157.09
2017-09-14T15:56:33.601Z,100158.14
2017-09-14T15:58:36.224Z,100159.39
2017-09-14T16:00:38.687Z,100184.44
2017-09-14T16:02:41.158Z,100172.77
2017-09-14T16:04:43.632Z,100170.58
2017-09-14T16:06:46.120Z,100162.47
2017-09-14T16:08:49.547Z,100178.70
2017-09-14T16:10:52.156Z,100162.27
2017-09-14T16:12:54.608Z,100162.69
2017-09-14T16:14:57.060Z,100160.40
2017-09-14T16:16:59.532Z,100162.45
2017-09-14T16:19:01.998Z,100161.52
2017-09-14T16:21:04.446Z,100168.61
2017-09-14T16:23:06.904Z,100158.55
2017-09-14T16:25:09.356Z,100182.88
2017-09-14T16:27:11.809Z,100173.84
2017-09-14T16:29:14.410Z,100177.98
2017-09-14T16:31:16.929Z,100176.94
2017-09-14T16:33:19.432Z,100187.55
2017-09-14T16:35:22.005Z,100175.47
2017-09-14T16:37:24.467Z,100181.31
2017-09-14T16:39:26.917Z,100180.80
2017-09-14T16:41:29.415Z,100188.82
2017-09-14T16:43:31.904Z,100182.25
2017-09-14T16:45:34.368Z,100183.31
2017-09-14T16:47:36.838Z,100181.75
2017-09-14T16:49:39.322Z,100184.55
2017-09-14T16:51:41.804Z,100186.45
2017-09-14T16:53:44.277Z,100196.44
2017-09-14T16:55:46.731Z,100201.52
2017-09-14T16:57:49.185Z,100209.22
2017-09-14T16:59:51.649Z,100220.97
2017-09-14T17:01:54.185Z,100206.19
2017-09-14T17:03:56.653Z,100217.76
2017-09-14T17:05:59.209Z,100230.02
2017-09-14T17:08:01.689Z,100225.78
2017-09-14T17:10:04.158Z,100229.00
2017-09-14T17:12:06.849Z,100232.64
2017-09-14T17:14:09.388Z,100242.20
2017-09-14T17:16:11.909Z,100255.30
2017-09-14T17:18:14.468Z,100250.83
2017-09-14T17:20:16.939Z,100246.91
2017-09-14T17:22:19.388Z,100260.10
2017-09-14T17:24:21.849Z,100263.22
2017-09-14T17:26:24.308Z,100262.81
2017-09-14T17:28:26.769Z,100263.73
2017-09-14T17:30:29.284Z,100277.07
2017-09-14T17:32:31.736Z,100274.75
2017-09-14T17:34:34.172Z,100279.03
2017-09-14T17:36:36.686Z,100290.69
2017-09-14T17:38:39.128Z,100296.00
2017-09-14T17:40:41.655Z,100303.14
2017-09-14T17:42:44.212Z,100308.27
2017-09-14T17:44:46.685Z,100326.88
2017-09-14T17:46:49.129Z,100333.13
2017-09-14T17:48:51.696Z,100333.22
2017-09-14T17:50:54.181Z,100334.38
2017-09-14T17:52:56.617Z,100339.46
2017-09-14T17:54:59.122Z,100354.23
2017-09-14T17:57:01.572Z,100352.97
2017-09-14T17:59:04.047Z,100363.37
2017-09-14T18:01:06.568Z,100370.55
2017-09-14T18:03:09.011Z,100380.84
2017-09-14T18:05:11.520Z,100380.00
2017-09-14T18:07:14.260Z,100395.39
2017-09-14T18:09:16.797Z,100404.52
2017-09-14T18:11:19.254Z,100396.03
2017-09-14T18:13:21.828Z,100424.51
2017-09-14T18:15:24.337Z,100430.84
2017-09-14T18:17:26.812Z,100433.13
2017-09-14T18:19:29.313Z,100435.93
2017-09-14T18:21:31.962Z,100451.63
2017-09-14T18:23:34.423Z,100442.59
2017-09-14T18:25:36.897Z,100456.94
2017-09-14T18:27:39.338Z,100458.39
2017-09-14T18:29:41.801Z,100460.48
2017-09-14T18:31:44.268Z,100474.92
2017-09-14T18:33:46.706Z,100482.91
2017-09-14T18:35:49.307Z,100489.38
2017-09-14T18:37:51.819Z,100497.48
2017-09-14T18:39:54.389Z,100495.81
2017-09-14T18:41:56.858Z,100502.98
2017-09-14T18:43:59.676Z,100508.81
2017-09-14T18:46:02.313Z,100513.89
2017-09-14T18:48:05.774Z,100517.66
2017-09-14T18:50:08.848Z,100518.36
2017-09-14T18:52:11.922Z,100527.83
2017-09-14T18:54:14.419Z,100534.68
2017-09-14T18:56:16.916Z,100537.38
2017-09-14T18:58:19.392Z,100552.89
2017-09-14T19:00:21.989Z,100548.73
2017-09-14T19:02:24.487Z,100547.48
2017-09-14T19:04:27.224Z,100557.55
2017-09-14T19:06:29.712Z,100562.44
2017-09-14T19:08:32.250Z,100575.44
2017-09-14T19:10:34.692Z,100574.60
2017-09-14T19:12:37.142Z,100583.22
2017-09-14T19:14:39.822Z,100582.70
2017-09-14T19:16:42.265Z,100590.91
2017-09-14T19:18:44.787Z,100596.13
2017-09-14T19:20:47.264Z,100588.94
2017-09-14T19:22:49.774Z,100595.19
2017-09-14T19:24:52.277Z,100596.21
2017-09-14T19:26:54.833Z,100602.45
2017-09-14T19:28:57.322Z,100607.02
2017-09-14T19:30:59.853Z,100615.31
2017-09-14T19:33:02.373Z,100614.09
2017-09-14T19:35:04.828Z,100617.51
2017-09-14T19:37:07.283Z,100616.28
2017-09-14T19:39:09.746Z,100618.98
2017-09-14T19:41:12.206Z,100620.72
2017-09-14T19:43:14.653Z,100623.97
2017-09-14T19:45:17.208Z,100629.80
2017-09-14T19:47:19.796Z,100638.00
2017-09-14T19:49:22.349Z,100637.91
2017-09-14T19:51:24.834Z,100638.00
2017-09-14T19:53:27.274Z,100642.05
2017-09-14T19:55:29.882Z,100642.98
2017-09-14T19:57:32.401Z,100648.06
2017-09-14T19:59:34.872Z,100644.94
2017-09-14T20:01:37.458Z,100649.92
2017-09-14T20:03:39.929Z,100650.05
2017-09-14T20:05:42.510Z,100658.55
2017-09-14T20:07:44.984Z,100653.27
2017-09-14T20:09:47.592Z,100661.67
2017-09-14T20:11:50.154Z,100659.38
2017-09-14T20:13:52.738Z,100669.77
2017-09-14T20:15:55.521Z,100666.14
2017-09-14T20:17:58.086Z,100665.72
2017-09-14T20:20:00.591Z,100672.70
2017-09-14T20:22:03.123Z,100668.55
2017-09-14T20:24:05.559Z,100676.11
2017-09-14T20:26:08.072Z,100678.42
2017-09-14T20:28:10.561Z,100684.53
2017-09-14T20:30:13.004Z,100695.85
2017-09-14T20:32:15.466Z,100693.14
2017-09-14T20:34:18.047Z,100695.66
2017-09-14T20:36:20.542Z,100704.70
2017-09-14T20:38:22.982Z,100710.11
2017-09-14T20:40:25.474Z,100714.89
2017-09-14T20:42:27.947Z,100715.70
2017-09-14T20:44:30.397Z,100721.11
2017-09-14T20:46:32.899Z,100723.52
2017-09-14T20:48:35.450Z,100728.91
2017-09-14T20:50:37.916Z,100735.25
2017-09-14T20:52:40.480Z,100735.34
2017-09-14T20:54:42.950Z,100739.73
2017-09-14T20:56:45.418Z,100738.37
2017-09-14T20:58:48.172Z,100738.80
2017-09-14T21:00:50.640Z,100739.39
2017-09-14T21:02:53.079Z,100747.92
2017-09-14T21:04:55.709Z,100760.09
2017-09-14T21:06:58.148Z,100762.45
2017-09-14T21:09:00.587Z,100761.52
2017-09-14T21:11:03.055Z,100763.81
2017-09-14T21:13:05.635Z,100758.62
2017-09-14T21:15:08.064Z,100767.14
2017-09-14T21:17:10.579Z,100766.22
2017-09-14T21:19:13.068Z,100770.27
2017-09-14T21:21:15.517Z,100768.08
2017-09-14T21:23:17.987Z,100775.55
2017-09-14T21:25:20.420Z,100776.48
2017-09-14T21:27:22.909Z,100781.47
2017-09-14T21:29:25.381Z,100782.94
2017-09-14T21:31:27.868Z,100785.01
2017-09-14T21:33:30.304Z,100785.01
2017-09-14T21:35:32.772Z,100786.99
2017-09-14T21:37:35.229Z,100802.58
2017-09-14T21:39:37.688Z,100794.98
2017-09-14T21:41:40.279Z,100798.52
2017-09-14T21:43:42.847Z,100797.17
2017-09-14T21:45:45.282Z,100804.80
2017-09-14T21:47:47.825Z,100799.81
2017-09-14T21:49:50.297Z,100808.77
2017-09-14T21:51:52.832Z,100803.30
2017-09-14T21:53:55.365Z,100799.72
2017-09-14T21:55:57.870Z,100811.83
2017-09-14T21:58:00.302Z,100807.50
2017-09-14T22:00:02.793Z,100805.22
2017-09-14T22:02:05.253Z,100810.20
2017-09-14T22:04:07.719Z,100810.98
2017-09-14T22:06:10.336Z,100814.95
2017-09-14T22:08:12.905Z,100815.19
2017-09-14T22:10:15.380Z,100818.31
2017-09-14T22:12:18.024Z,100810.75
2017-09-14T22:14:20.598Z,100822.48
2017-09-14T22:16:23.102Z,100831.52
2017-09-14T22:18:25.698Z,100821.64
2017-09-14T22:20:28.165Z,100831.61
2017-09-14T22:22:30.699Z,100830.17
2017-09-14T22:24:33.213Z,100827.23
2017-09-14T22:26:35.680Z,100834.41
2017-09-14T22:28:38.160Z,100837.62
2017-09-14T22:30:40.724Z,100833.69
2017-09-14T22:32:43.185Z,100832.22
2017-09-14T22:34:46.550Z,100832.55
2017-09-14T22:36:49.038Z,100833.30
2017-09-14T22:38:51.693Z,100832.55
2017-09-14T22:40:54.163Z,100836.39
2017-09-14T22:42:56.680Z,100836.17
2017-09-14T22:44:59.130Z,100834.31
2017-09-14T22:47:01.766Z,100839.30
2017-09-14T22:49:04.400Z,100841.16
2017-09-14T22:51:06.873Z,100846.05
2017-09-14T22:53:09.500Z,100841.38
2017-09-14T22:55:11.967Z,100839.39
2017-09-14T22:57:14.404Z,100840.32
2017-09-14T22:59:16.846Z,100840.83
2017-09-14T23:01:19.418Z,100848.00
2017-09-14T23:03:21.953Z,100846.36
2017-09-14T23:05:24.415Z,100844.70
2017-09-14T23:07:26.880Z,100846.86
2017-09-14T23:09:29.322Z,100847.29
2017-09-14T23:11:31.835Z,100860.55
2017-09-14T23:13:34.506Z,100852.96
2017-09-14T23:15:36.957Z,100852.96
2017-09-14T23:17:39.397Z,100859.20
2017-09-14T23:19:42.156Z,100859.84
2017-09-14T23:21:44.592Z,100854.95
2017-09-14T23:23:47.033Z,100858.16
2017-09-14T23:25:49.622Z,100856.20
2017-09-14T23:27:52.245Z,100859.41
2017-09-14T23:29:54.689Z,100849.45
2017-09-14T23:31:57.353Z,100851.22
2017-09-14T23:33:59.803Z,100855.78
2017-09-14T23:36:02.342Z,100855.03
2017-09-14T23:38:04.818Z,100860.86